sensor_id;sensor_type;location;lat;lon;timestamp;P1;durP1;ratioP1;P2;durP2;ratioP2
26574;SDS011;67165;50.256;10.978;2023-04-10T00:00:29;32.13;;;19.67;;
26574;SDS011;67165;50.256;10.978;2023-04-10T00:02:56;33.88;;;20.67;;
26574;SDS011;67165;50.256;10.978;2023-04-10T00:05:23;31.63;;;20.40;;
26574;SDS011;67165;50.256;10.978;2023-04-10T00:07:49;34.63;;;21.15;;
26574;SDS011;67165;50.256;10.978;2023-04-10T00:10:18;34.13;;;21.13;;
26574;SDS011;67165;50.256;10.978;2023-04-10T00:12:44;36.95;;;21.75;;
26574;SDS011;67165;50.256;10.978;2023-04-10T00:15:10;36.17;;;21.60;;
26574;SDS011;67165;50.256;10.978;2023-04-10T00:17:38;34.92;;;20.90;;
26574;SDS011;67165;50.256;10.978;2023-04-10T00:20:04;35.33;;;21.77;;
26574;SDS011;67165;50.256;10.978;2023-04-10T00:22:31;41.40;;;23.52;;
26574;SDS011;67165;50.256;10.978;2023-04-10T00:24:56;41.60;;;25.20;;
26574;SDS011;67165;50.256;10.978;2023-04-10T00:27:24;38.90;;;23.20;;
26574;SDS011;67165;50.256;10.978;2023-04-10T00:29:50;34.78;;;21.17;;
26574;SDS011;67165;50.256;10.978;2023-04-10T00:32:16;36.53;;;21.35;;
26574;SDS011;67165;50.256;10.978;2023-04-10T00:34:41;32.60;;;20.38;;
26574;SDS011;67165;50.256;10.978;2023-04-10T00:37:07;32.88;;;19.65;;
26574;SDS011;67165;50.256;10.978;2023-04-10T00:39:33;32.22;;;20.10;;
26574;SDS011;67165;50.256;10.978;2023-04-10T00:41:59;37.53;;;21.08;;
26574;SDS011;67165;50.256;10.978;2023-04-10T00:44:28;38.13;;;21.60;;
26574;SDS011;67165;50.256;10.978;2023-04-10T00:46:53;36.13;;;20.98;;
26574;SDS011;67165;50.256;10.978;2023-04-10T00:49:19;36.75;;;20.75;;
26574;SDS011;67165;50.256;10.978;2023-04-10T00:51:45;37.92;;;21.55;;
26574;SDS011;67165;50.256;10.978;2023-04-10T00:54:11;32.33;;;20.90;;
26574;SDS011;67165;50.256;10.978;2023-04-10T00:56:38;37.55;;;22.58;;
26574;SDS011;67165;50.256;10.978;2023-04-10T00:59:04;36.17;;;21.00;;
26574;SDS011;67165;50.256;10.978;2023-04-10T01:01:30;38.42;;;22.33;;
26574;SDS011;67165;50.256;10.978;2023-04-10T01:03:56;41.53;;;22.88;;
26574;SDS011;67165;50.256;10.978;2023-04-10T01:09:19;33.78;;;20.45;;
26574;SDS011;67165;50.256;10.978;2023-04-10T01:15:08;37.97;;;22.10;;
26574;SDS011;67165;50.256;10.978;2023-04-10T01:20:19;41.03;;;23.17;;
26574;SDS011;67165;50.256;10.978;2023-04-10T01:25:55;37.65;;;22.27;;
26574;SDS011;67165;50.256;10.978;2023-04-10T01:30:56;36.92;;;21.67;;
26574;SDS011;67165;50.256;10.978;2023-04-10T01:33:28;37.17;;;21.90;;
26574;SDS011;67165;50.256;10.978;2023-04-10T01:35:57;41.55;;;23.70;;
26574;SDS011;67165;50.256;10.978;2023-04-10T01:38:26;37.88;;;22.63;;
26574;SDS011;67165;50.256;10.978;2023-04-10T01:40:55;37.55;;;22.55;;
26574;SDS011;67165;50.256;10.978;2023-04-10T01:43:22;37.03;;;21.65;;
26574;SDS011;67165;50.256;10.978;2023-04-10T01:45:51;38.70;;;22.27;;
26574;SDS011;67165;50.256;10.978;2023-04-10T01:48:17;35.60;;;21.55;;
26574;SDS011;67165;50.256;10.978;2023-04-10T01:50:44;39.65;;;22.98;;
26574;SDS011;67165;50.256;10.978;2023-04-10T01:53:11;38.70;;;23.55;;
26574;SDS011;67165;50.256;10.978;2023-04-10T01:55:37;39.92;;;24.15;;
26574;SDS011;67165;50.256;10.978;2023-04-10T01:58:04;42.97;;;24.63;;
26574;SDS011;67165;50.256;10.978;2023-04-10T02:00:36;43.85;;;25.23;;
26574;SDS011;67165;50.256;10.978;2023-04-10T02:03:03;40.33;;;23.23;;
26574;SDS011;67165;50.256;10.978;2023-04-10T02:05:30;42.03;;;24.52;;
26574;SDS011;67165;50.256;10.978;2023-04-10T02:08:19;41.40;;;24.00;;
26574;SDS011;67165;50.256;10.978;2023-04-10T02:13:53;44.53;;;24.60;;
26574;SDS011;67165;50.256;10.978;2023-04-10T02:16:24;46.28;;;26.05;;
26574;SDS011;67165;50.256;10.978;2023-04-10T02:18:54;43.22;;;24.75;;
26574;SDS011;67165;50.256;10.978;2023-04-10T02:21:21;48.97;;;26.17;;
26574;SDS011;67165;50.256;10.978;2023-04-10T02:23:47;46.35;;;25.67;;
26574;SDS011;67165;50.256;10.978;2023-04-10T02:26:13;45.90;;;26.10;;
26574;SDS011;67165;50.256;10.978;2023-04-10T02:28:40;43.50;;;25.15;;
26574;SDS011;67165;50.256;10.978;2023-04-10T02:31:06;45.00;;;24.92;;
26574;SDS011;67165;50.256;10.978;2023-04-10T02:33:34;44.97;;;25.77;;
26574;SDS011;67165;50.256;10.978;2023-04-10T02:36:00;43.78;;;24.60;;
26574;SDS011;67165;50.256;10.978;2023-04-10T02:38:26;41.40;;;24.95;;
26574;SDS011;67165;50.256;10.978;2023-04-10T02:40:52;41.05;;;24.10;;
26574;SDS011;67165;50.256;10.978;2023-04-10T02:43:17;47.30;;;26.08;;
26574;SDS011;67165;50.256;10.978;2023-04-10T02:45:43;41.28;;;24.40;;
26574;SDS011;67165;50.256;10.978;2023-04-10T02:48:09;45.05;;;26.00;;
26574;SDS011;67165;50.256;10.978;2023-04-10T02:50:35;48.47;;;25.27;;
26574;SDS011;67165;50.256;10.978;2023-04-10T02:53:03;43.78;;;25.83;;
26574;SDS011;67165;50.256;10.978;2023-04-10T02:55:29;45.15;;;25.25;;
26574;SDS011;67165;50.256;10.978;2023-04-10T02:57:55;46.22;;;25.70;;
26574;SDS011;67165;50.256;10.978;2023-04-10T03:00:21;46.08;;;26.13;;
26574;SDS011;67165;50.256;10.978;2023-04-10T03:02:47;47.78;;;27.23;;
26574;SDS011;67165;50.256;10.978;2023-04-10T03:05:12;42.60;;;25.17;;
26574;SDS011;67165;50.256;10.978;2023-04-10T03:07:38;47.97;;;26.30;;
26574;SDS011;67165;50.256;10.978;2023-04-10T03:10:04;44.60;;;24.95;;
26574;SDS011;67165;50.256;10.978;2023-04-10T03:12:30;45.58;;;24.98;;
26574;SDS011;67165;50.256;10.978;2023-04-10T03:14:58;47.72;;;26.45;;
26574;SDS011;67165;50.256;10.978;2023-04-10T03:17:26;41.80;;;24.50;;
26574;SDS011;67165;50.256;10.978;2023-04-10T03:19:52;45.63;;;26.02;;
26574;SDS011;67165;50.256;10.978;2023-04-10T03:22:18;43.35;;;25.75;;
26574;SDS011;67165;50.256;10.978;2023-04-10T03:24:43;46.55;;;26.17;;
26574;SDS011;67165;50.256;10.978;2023-04-10T03:27:09;43.30;;;25.30;;
26574;SDS011;67165;50.256;10.978;2023-04-10T03:29:35;45.80;;;25.48;;
26574;SDS011;67165;50.256;10.978;2023-04-10T03:32:01;44.53;;;25.55;;
26574;SDS011;67165;50.256;10.978;2023-04-10T03:34:26;47.35;;;26.85;;
26574;SDS011;67165;50.256;10.978;2023-04-10T03:36:52;46.42;;;26.27;;
26574;SDS011;67165;50.256;10.978;2023-04-10T03:39:18;42.97;;;23.80;;
26574;SDS011;67165;50.256;10.978;2023-04-10T03:41:45;43.88;;;25.60;;
26574;SDS011;67165;50.256;10.978;2023-04-10T03:44:11;49.17;;;26.02;;
26574;SDS011;67165;50.256;10.978;2023-04-10T03:46:37;43.78;;;24.13;;
26574;SDS011;67165;50.256;10.978;2023-04-10T03:49:03;48.35;;;26.17;;
26574;SDS011;67165;50.256;10.978;2023-04-10T03:51:39;47.08;;;27.02;;
26574;SDS011;67165;50.256;10.978;2023-04-10T03:54:04;48.22;;;26.77;;
26574;SDS011;67165;50.256;10.978;2023-04-10T03:56:30;49.53;;;27.10;;
26574;SDS011;67165;50.256;10.978;2023-04-10T03:58:56;44.60;;;26.70;;
26574;SDS011;67165;50.256;10.978;2023-04-10T04:01:21;45.35;;;25.63;;
26574;SDS011;67165;50.256;10.978;2023-04-10T04:03:47;44.80;;;26.20;;
26574;SDS011;67165;50.256;10.978;2023-04-10T04:06:13;48.63;;;26.33;;
26574;SDS011;67165;50.256;10.978;2023-04-10T04:08:38;47.78;;;27.23;;
26574;SDS011;67165;50.256;10.978;2023-04-10T04:11:04;47.40;;;26.13;;
26574;SDS011;67165;50.256;10.978;2023-04-10T04:13:30;44.53;;;25.30;;
26574;SDS011;67165;50.256;10.978;2023-04-10T04:15:56;45.78;;;26.45;;
26574;SDS011;67165;50.256;10.978;2023-04-10T04:18:22;46.38;;;25.38;;
26574;SDS011;67165;50.256;10.978;2023-04-10T04:20:47;51.58;;;29.10;;
26574;SDS011;67165;50.256;10.978;2023-04-10T04:23:13;45.13;;;25.65;;
26574;SDS011;67165;50.256;10.978;2023-04-10T04:25:39;50.60;;;27.40;;
26574;SDS011;67165;50.256;10.978;2023-04-10T04:28:07;45.03;;;25.70;;
26574;SDS011;67165;50.256;10.978;2023-04-10T04:30:35;48.80;;;27.23;;
26574;SDS011;67165;50.256;10.978;2023-04-10T04:33:09;51.50;;;27.63;;
26574;SDS011;67165;50.256;10.978;2023-04-10T04:35:37;49.40;;;26.90;;
26574;SDS011;67165;50.256;10.978;2023-04-10T04:38:03;49.80;;;26.77;;
26574;SDS011;67165;50.256;10.978;2023-04-10T04:40:28;45.40;;;25.73;;
26574;SDS011;67165;50.256;10.978;2023-04-10T04:42:55;48.90;;;27.48;;
26574;SDS011;67165;50.256;10.978;2023-04-10T04:45:21;43.13;;;25.02;;
26574;SDS011;67165;50.256;10.978;2023-04-10T04:47:48;46.95;;;27.02;;
26574;SDS011;67165;50.256;10.978;2023-04-10T04:50:16;46.55;;;26.08;;
26574;SDS011;67165;50.256;10.978;2023-04-10T04:52:42;46.40;;;26.63;;
26574;SDS011;67165;50.256;10.978;2023-04-10T04:55:11;47.17;;;26.00;;
26574;SDS011;67165;50.256;10.978;2023-04-10T04:57:37;45.08;;;25.55;;
26574;SDS011;67165;50.256;10.978;2023-04-10T05:00:05;42.20;;;25.77;;
26574;SDS011;67165;50.256;10.978;2023-04-10T05:02:32;45.42;;;26.02;;
26574;SDS011;67165;50.256;10.978;2023-04-10T05:05:00;48.90;;;26.77;;
26574;SDS011;67165;50.256;10.978;2023-04-10T05:07:29;45.33;;;25.73;;
26574;SDS011;67165;50.256;10.978;2023-04-10T05:09:57;43.35;;;25.35;;
26574;SDS011;67165;50.256;10.978;2023-04-10T05:12:26;42.70;;;25.65;;
26574;SDS011;67165;50.256;10.978;2023-04-10T05:14:53;47.40;;;25.33;;
26574;SDS011;67165;50.256;10.978;2023-04-10T05:17:19;44.75;;;25.92;;
26574;SDS011;67165;50.256;10.978;2023-04-10T05:19:45;43.15;;;25.15;;
26574;SDS011;67165;50.256;10.978;2023-04-10T05:22:11;46.15;;;25.90;;
26574;SDS011;67165;50.256;10.978;2023-04-10T05:24:36;43.50;;;26.10;;
26574;SDS011;67165;50.256;10.978;2023-04-10T05:27:05;44.47;;;27.08;;
26574;SDS011;67165;50.256;10.978;2023-04-10T05:29:31;44.90;;;25.17;;
26574;SDS011;67165;50.256;10.978;2023-04-10T05:31:57;42.75;;;24.60;;
26574;SDS011;67165;50.256;10.978;2023-04-10T05:34:24;41.63;;;25.35;;
26574;SDS011;67165;50.256;10.978;2023-04-10T05:36:53;44.38;;;25.50;;
26574;SDS011;67165;50.256;10.978;2023-04-10T05:39:21;40.92;;;24.92;;
26574;SDS011;67165;50.256;10.978;2023-04-10T05:42:11;43.85;;;26.33;;
26574;SDS011;67165;50.256;10.978;2023-04-10T05:44:34;41.75;;;24.75;;
26574;SDS011;67165;50.256;10.978;2023-04-10T05:47:03;39.55;;;23.73;;
26574;SDS011;67165;50.256;10.978;2023-04-10T05:49:49;41.63;;;25.35;;
26574;SDS011;67165;50.256;10.978;2023-04-10T05:52:16;41.88;;;24.52;;
26574;SDS011;67165;50.256;10.978;2023-04-10T05:54:44;39.42;;;24.77;;
26574;SDS011;67165;50.256;10.978;2023-04-10T05:57:11;41.97;;;25.50;;
26574;SDS011;67165;50.256;10.978;2023-04-10T05:59:43;42.85;;;26.05;;
26574;SDS011;67165;50.256;10.978;2023-04-10T06:02:12;38.95;;;24.75;;
26574;SDS011;67165;50.256;10.978;2023-04-10T06:04:37;37.25;;;23.98;;
26574;SDS011;67165;50.256;10.978;2023-04-10T06:07:04;37.15;;;22.80;;
26574;SDS011;67165;50.256;10.978;2023-04-10T06:09:31;37.05;;;23.40;;
26574;SDS011;67165;50.256;10.978;2023-04-10T06:12:06;35.40;;;23.15;;
26574;SDS011;67165;50.256;10.978;2023-04-10T06:14:46;37.78;;;23.08;;
26574;SDS011;67165;50.256;10.978;2023-04-10T06:17:15;36.03;;;23.55;;
26574;SDS011;67165;50.256;10.978;2023-04-10T06:19:41;34.40;;;23.20;;
26574;SDS011;67165;50.256;10.978;2023-04-10T06:22:16;35.35;;;22.42;;
26574;SDS011;67165;50.256;10.978;2023-04-10T06:24:48;34.47;;;22.85;;
26574;SDS011;67165;50.256;10.978;2023-04-10T06:27:14;31.35;;;20.67;;
26574;SDS011;67165;50.256;10.978;2023-04-10T06:29:43;32.33;;;21.13;;
26574;SDS011;67165;50.256;10.978;2023-04-10T06:32:15;34.40;;;21.98;;
26574;SDS011;67165;50.256;10.978;2023-04-10T06:34:41;31.67;;;22.08;;
26574;SDS011;67165;50.256;10.978;2023-04-10T06:37:28;33.17;;;22.35;;
26574;SDS011;67165;50.256;10.978;2023-04-10T06:43:04;33.25;;;20.85;;
26574;SDS011;67165;50.256;10.978;2023-04-10T06:45:39;32.65;;;21.60;;
26574;SDS011;67165;50.256;10.978;2023-04-10T06:48:27;30.60;;;20.17;;
26574;SDS011;67165;50.256;10.978;2023-04-10T06:51:03;32.03;;;20.60;;
26574;SDS011;67165;50.256;10.978;2023-04-10T06:53:38;33.83;;;21.92;;
26574;SDS011;67165;50.256;10.978;2023-04-10T06:56:19;35.85;;;21.52;;
26574;SDS011;67165;50.256;10.978;2023-04-10T06:59:16;30.95;;;20.70;;
26574;SDS011;67165;50.256;10.978;2023-04-10T07:04:35;29.98;;;19.88;;
26574;SDS011;67165;50.256;10.978;2023-04-10T07:07:01;31.88;;;20.92;;
26574;SDS011;67165;50.256;10.978;2023-04-10T07:09:28;29.50;;;19.98;;
26574;SDS011;67165;50.256;10.978;2023-04-10T07:11:56;31.88;;;21.83;;
26574;SDS011;67165;50.256;10.978;2023-04-10T07:14:21;30.45;;;20.65;;
26574;SDS011;67165;50.256;10.978;2023-04-10T07:16:48;31.30;;;20.77;;
26574;SDS011;67165;50.256;10.978;2023-04-10T07:19:15;31.52;;;21.02;;
26574;SDS011;67165;50.256;10.978;2023-04-10T07:21:41;31.33;;;20.80;;
26574;SDS011;67165;50.256;10.978;2023-04-10T07:24:16;32.83;;;21.90;;
26574;SDS011;67165;50.256;10.978;2023-04-10T07:26:45;30.95;;;21.45;;
26574;SDS011;67165;50.256;10.978;2023-04-10T07:29:11;32.65;;;21.10;;
26574;SDS011;67165;50.256;10.978;2023-04-10T07:31:48;31.95;;;21.42;;
26574;SDS011;67165;50.256;10.978;2023-04-10T07:34:17;29.55;;;20.77;;
26574;SDS011;67165;50.256;10.978;2023-04-10T07:36:43;30.92;;;19.67;;
26574;SDS011;67165;50.256;10.978;2023-04-10T07:39:08;31.92;;;21.33;;
26574;SDS011;67165;50.256;10.978;2023-04-10T07:41:42;32.63;;;21.27;;
26574;SDS011;67165;50.256;10.978;2023-04-10T07:44:07;29.45;;;20.48;;
26574;SDS011;67165;50.256;10.978;2023-04-10T07:46:33;29.25;;;19.73;;
26574;SDS011;67165;50.256;10.978;2023-04-10T07:49:03;29.33;;;19.88;;
26574;SDS011;67165;50.256;10.978;2023-04-10T07:51:34;27.70;;;19.02;;
26574;SDS011;67165;50.256;10.978;2023-04-10T07:54:01;27.33;;;18.48;;
26574;SDS011;67165;50.256;10.978;2023-04-10T07:56:27;28.35;;;18.48;;
26574;SDS011;67165;50.256;10.978;2023-04-10T07:58:57;28.13;;;18.90;;
26574;SDS011;67165;50.256;10.978;2023-04-10T08:01:24;24.52;;;17.60;;
26574;SDS011;67165;50.256;10.978;2023-04-10T08:03:50;24.52;;;17.48;;
26574;SDS011;67165;50.256;10.978;2023-04-10T08:06:16;24.48;;;17.63;;
26574;SDS011;67165;50.256;10.978;2023-04-10T08:08:45;25.55;;;17.48;;
26574;SDS011;67165;50.256;10.978;2023-04-10T08:11:21;25.42;;;17.48;;
26574;SDS011;67165;50.256;10.978;2023-04-10T08:13:53;27.90;;;17.95;;
26574;SDS011;67165;50.256;10.978;2023-04-10T08:16:27;25.95;;;16.90;;
26574;SDS011;67165;50.256;10.978;2023-04-10T08:18:54;26.55;;;18.33;;
26574;SDS011;67165;50.256;10.978;2023-04-10T08:21:21;24.42;;;16.55;;
26574;SDS011;67165;50.256;10.978;2023-04-10T08:23:58;22.85;;;16.40;;
26574;SDS011;67165;50.256;10.978;2023-04-10T08:28:52;21.77;;;15.38;;
26574;SDS011;67165;50.256;10.978;2023-04-10T08:31:20;22.67;;;15.52;;
26574;SDS011;67165;50.256;10.978;2023-04-10T08:33:47;23.25;;;15.48;;
26574;SDS011;67165;50.256;10.978;2023-04-10T08:36:13;21.15;;;14.88;;
26574;SDS011;67165;50.256;10.978;2023-04-10T08:38:43;20.35;;;14.70;;
26574;SDS011;67165;50.256;10.978;2023-04-10T08:41:09;21.55;;;14.55;;
26574;SDS011;67165;50.256;10.978;2023-04-10T08:43:40;23.85;;;14.75;;
26574;SDS011;67165;50.256;10.978;2023-04-10T08:46:07;20.15;;;13.57;;
26574;SDS011;67165;50.256;10.978;2023-04-10T08:51:08;16.65;;;11.40;;
26574;SDS011;67165;50.256;10.978;2023-04-10T08:53:42;18.65;;;11.48;;
26574;SDS011;67165;50.256;10.978;2023-04-10T08:56:12;15.90;;;11.23;;
26574;SDS011;67165;50.256;10.978;2023-04-10T08:58:41;16.45;;;10.65;;
26574;SDS011;67165;50.256;10.978;2023-04-10T09:01:07;15.15;;;10.80;;
26574;SDS011;67165;50.256;10.978;2023-04-10T09:03:35;14.25;;;10.27;;
26574;SDS011;67165;50.256;10.978;2023-04-10T09:06:07;13.75;;;9.77;;
26574;SDS011;67165;50.256;10.978;2023-04-10T09:08:33;17.02;;;11.57;;
26574;SDS011;67165;50.256;10.978;2023-04-10T09:11:08;14.63;;;10.50;;
26574;SDS011;67165;50.256;10.978;2023-04-10T09:13:41;14.77;;;10.52;;
26574;SDS011;67165;50.256;10.978;2023-04-10T09:16:12;13.30;;;10.30;;
26574;SDS011;67165;50.256;10.978;2023-04-10T09:18:50;16.15;;;11.38;;
26574;SDS011;67165;50.256;10.978;2023-04-10T09:21:17;14.25;;;10.40;;
26574;SDS011;67165;50.256;10.978;2023-04-10T09:23:44;16.38;;;10.73;;
26574;SDS011;67165;50.256;10.978;2023-04-10T09:26:32;13.85;;;9.60;;
26574;SDS011;67165;50.256;10.978;2023-04-10T09:31:31;11.38;;;8.48;;
26574;SDS011;67165;50.256;10.978;2023-04-10T09:36:50;10.00;;;6.95;;
26574;SDS011;67165;50.256;10.978;2023-04-10T09:42:08;8.40;;;5.78;;
26574;SDS011;67165;50.256;10.978;2023-04-10T09:44:36;9.82;;;7.10;;
26574;SDS011;67165;50.256;10.978;2023-04-10T09:49:45;10.77;;;7.03;;
26574;SDS011;67165;50.256;10.978;2023-04-10T09:52:22;11.63;;;7.45;;
26574;SDS011;67165;50.256;10.978;2023-04-10T09:54:52;9.80;;;6.97;;
26574;SDS011;67165;50.256;10.978;2023-04-10T09:57:20;9.05;;;6.05;;
26574;SDS011;67165;50.256;10.978;2023-04-10T10:00:03;7.88;;;5.90;;
26574;SDS011;67165;50.256;10.978;2023-04-10T10:02:31;7.55;;;5.85;;
26574;SDS011;67165;50.256;10.978;2023-04-10T10:05:01;7.32;;;5.85;;
26574;SDS011;67165;50.256;10.978;2023-04-10T10:07:29;7.88;;;5.70;;
26574;SDS011;67165;50.256;10.978;2023-04-10T10:09:56;7.25;;;5.80;;
26574;SDS011;67165;50.256;10.978;2023-04-10T10:12:23;7.70;;;6.15;;
26574;SDS011;67165;50.256;10.978;2023-04-10T10:14:55;8.10;;;6.30;;
26574;SDS011;67165;50.256;10.978;2023-04-10T10:17:28;7.28;;;5.75;;
26574;SDS011;67165;50.256;10.978;2023-04-10T10:20:01;8.38;;;6.10;;
26574;SDS011;67165;50.256;10.978;2023-04-10T10:22:31;8.32;;;6.20;;
26574;SDS011;67165;50.256;10.978;2023-04-10T10:25:00;9.52;;;6.50;;
26574;SDS011;67165;50.256;10.978;2023-04-10T10:27:27;7.15;;;5.82;;
26574;SDS011;67165;50.256;10.978;2023-04-10T10:30:00;8.10;;;5.90;;
26574;SDS011;67165;50.256;10.978;2023-04-10T10:32:28;8.13;;;5.95;;
26574;SDS011;67165;50.256;10.978;2023-04-10T10:34:57;9.73;;;6.32;;
26574;SDS011;67165;50.256;10.978;2023-04-10T10:37:23;8.60;;;6.60;;
26574;SDS011;67165;50.256;10.978;2023-04-10T10:40:50;9.35;;;6.68;;
26574;SDS011;67165;50.256;10.978;2023-04-10T10:42:56;8.15;;;5.90;;
26574;SDS011;67165;50.256;10.978;2023-04-10T10:45:36;6.85;;;5.50;;
26574;SDS011;67165;50.256;10.978;2023-04-10T10:48:23;10.35;;;6.35;;
26574;SDS011;67165;50.256;10.978;2023-04-10T10:50:55;7.97;;;6.00;;
26574;SDS011;67165;50.256;10.978;2023-04-10T10:53:30;8.75;;;5.93;;
26574;SDS011;67165;50.256;10.978;2023-04-10T10:58:50;7.30;;;6.03;;
26574;SDS011;67165;50.256;10.978;2023-04-10T11:01:22;9.65;;;6.97;;
26574;SDS011;67165;50.256;10.978;2023-04-10T11:03:51;10.05;;;7.03;;
26574;SDS011;67165;50.256;10.978;2023-04-10T11:06:19;8.40;;;6.40;;
26574;SDS011;67165;50.256;10.978;2023-04-10T11:08:58;7.35;;;5.60;;
26574;SDS011;67165;50.256;10.978;2023-04-10T11:14:14;9.30;;;6.60;;
26574;SDS011;67165;50.256;10.978;2023-04-10T11:16:42;11.52;;;6.20;;
26574;SDS011;67165;50.256;10.978;2023-04-10T11:19:10;7.72;;;5.88;;
26574;SDS011;67165;50.256;10.978;2023-04-10T11:27:39;6.15;;;5.38;;
26574;SDS011;67165;50.256;10.978;2023-04-10T11:30:28;7.63;;;5.93;;
26574;SDS011;67165;50.256;10.978;2023-04-10T11:32:56;6.55;;;5.70;;
26574;SDS011;67165;50.256;10.978;2023-04-10T11:35:22;6.90;;;5.63;;
26574;SDS011;67165;50.256;10.978;2023-04-10T11:37:48;7.55;;;5.82;;
26574;SDS011;67165;50.256;10.978;2023-04-10T11:40:13;11.05;;;5.60;;
26574;SDS011;67165;50.256;10.978;2023-04-10T11:42:40;6.78;;;5.50;;
26574;SDS011;67165;50.256;10.978;2023-04-10T11:45:25;7.07;;;5.65;;
26574;SDS011;67165;50.256;10.978;2023-04-10T11:47:52;8.40;;;6.38;;
26574;SDS011;67165;50.256;10.978;2023-04-10T11:50:18;6.80;;;5.78;;
26574;SDS011;67165;50.256;10.978;2023-04-10T11:52:46;7.10;;;5.88;;
26574;SDS011;67165;50.256;10.978;2023-04-10T11:55:15;8.50;;;6.20;;
26574;SDS011;67165;50.256;10.978;2023-04-10T11:57:41;5.97;;;5.25;;
26574;SDS011;67165;50.256;10.978;2023-04-10T12:00:09;7.57;;;5.22;;
26574;SDS011;67165;50.256;10.978;2023-04-10T12:02:48;6.82;;;5.57;;
26574;SDS011;67165;50.256;10.978;2023-04-10T12:05:14;6.95;;;5.53;;
26574;SDS011;67165;50.256;10.978;2023-04-10T12:07:40;6.82;;;5.85;;
26574;SDS011;67165;50.256;10.978;2023-04-10T12:10:07;6.07;;;5.40;;
26574;SDS011;67165;50.256;10.978;2023-04-10T12:12:34;6.65;;;5.30;;
26574;SDS011;67165;50.256;10.978;2023-04-10T12:15:00;8.35;;;5.47;;
26574;SDS011;67165;50.256;10.978;2023-04-10T12:17:46;8.25;;;5.70;;
26574;SDS011;67165;50.256;10.978;2023-04-10T12:20:13;7.03;;;5.82;;
26574;SDS011;67165;50.256;10.978;2023-04-10T12:22:40;7.00;;;5.88;;
26574;SDS011;67165;50.256;10.978;2023-04-10T12:25:09;6.75;;;5.40;;
26574;SDS011;67165;50.256;10.978;2023-04-10T12:27:36;6.18;;;5.50;;
26574;SDS011;67165;50.256;10.978;2023-04-10T12:30:02;7.65;;;6.32;;
26574;SDS011;67165;50.256;10.978;2023-04-10T12:32:32;7.93;;;6.20;;
26574;SDS011;67165;50.256;10.978;2023-04-10T12:34:58;6.95;;;6.05;;
26574;SDS011;67165;50.256;10.978;2023-04-10T12:37:46;7.78;;;5.75;;
26574;SDS011;67165;50.256;10.978;2023-04-10T12:40:12;7.43;;;5.90;;
26574;SDS011;67165;50.256;10.978;2023-04-10T12:42:41;8.02;;;6.40;;
26574;SDS011;67165;50.256;10.978;2023-04-10T12:45:07;7.45;;;6.07;;
26574;SDS011;67165;50.256;10.978;2023-04-10T12:47:43;6.90;;;5.97;;
26574;SDS011;67165;50.256;10.978;2023-04-10T12:50:12;7.32;;;6.10;;
26574;SDS011;67165;50.256;10.978;2023-04-10T12:52:43;7.40;;;6.00;;
26574;SDS011;67165;50.256;10.978;2023-04-10T12:55:10;6.78;;;5.78;;
26574;SDS011;67165;50.256;10.978;2023-04-10T12:57:45;7.13;;;5.60;;
26574;SDS011;67165;50.256;10.978;2023-04-10T13:00:13;9.05;;;6.00;;
26574;SDS011;67165;50.256;10.978;2023-04-10T13:02:43;8.50;;;6.43;;
26574;SDS011;67165;50.256;10.978;2023-04-10T13:05:09;7.47;;;6.13;;
26574;SDS011;67165;50.256;10.978;2023-04-10T13:07:35;7.35;;;6.05;;
26574;SDS011;67165;50.256;10.978;2023-04-10T13:10:02;7.03;;;5.82;;
26574;SDS011;67165;50.256;10.978;2023-04-10T13:12:29;7.25;;;5.68;;
26574;SDS011;67165;50.256;10.978;2023-04-10T13:14:56;7.28;;;5.97;;
26574;SDS011;67165;50.256;10.978;2023-04-10T13:17:22;8.55;;;6.00;;
26574;SDS011;67165;50.256;10.978;2023-04-10T13:19:49;7.25;;;5.80;;
26574;SDS011;67165;50.256;10.978;2023-04-10T13:22:15;6.95;;;5.82;;
26574;SDS011;67165;50.256;10.978;2023-04-10T13:24:41;6.75;;;5.65;;
26574;SDS011;67165;50.256;10.978;2023-04-10T13:27:07;7.75;;;5.70;;
26574;SDS011;67165;50.256;10.978;2023-04-10T13:29:33;7.65;;;5.93;;
26574;SDS011;67165;50.256;10.978;2023-04-10T13:32:00;8.77;;;6.00;;
26574;SDS011;67165;50.256;10.978;2023-04-10T13:34:28;7.13;;;6.30;;
26574;SDS011;67165;50.256;10.978;2023-04-10T13:36:53;6.68;;;5.90;;
26574;SDS011;67165;50.256;10.978;2023-04-10T13:39:19;7.28;;;5.32;;
26574;SDS011;67165;50.256;10.978;2023-04-10T13:41:45;6.30;;;5.45;;
26574;SDS011;67165;50.256;10.978;2023-04-10T13:44:13;6.20;;;5.18;;
26574;SDS011;67165;50.256;10.978;2023-04-10T13:46:39;6.60;;;5.30;;
26574;SDS011;67165;50.256;10.978;2023-04-10T13:49:04;6.82;;;5.50;;
26574;SDS011;67165;50.256;10.978;2023-04-10T13:51:30;5.93;;;5.30;;
26574;SDS011;67165;50.256;10.978;2023-04-10T13:53:56;5.53;;;4.90;;
26574;SDS011;67165;50.256;10.978;2023-04-10T13:56:22;6.60;;;5.43;;
26574;SDS011;67165;50.256;10.978;2023-04-10T13:58:48;5.97;;;5.28;;
26574;SDS011;67165;50.256;10.978;2023-04-10T14:01:14;7.72;;;6.30;;
26574;SDS011;67165;50.256;10.978;2023-04-10T14:03:39;5.90;;;5.13;;
26574;SDS011;67165;50.256;10.978;2023-04-10T14:06:05;6.05;;;5.10;;
26574;SDS011;67165;50.256;10.978;2023-04-10T14:08:31;5.95;;;4.78;;
26574;SDS011;67165;50.256;10.978;2023-04-10T14:10:57;5.15;;;4.65;;
26574;SDS011;67165;50.256;10.978;2023-04-10T14:13:23;5.68;;;4.78;;
26574;SDS011;67165;50.256;10.978;2023-04-10T14:15:48;6.45;;;4.82;;
26574;SDS011;67165;50.256;10.978;2023-04-10T14:18:17;5.60;;;4.65;;
26574;SDS011;67165;50.256;10.978;2023-04-10T14:20:43;5.47;;;4.72;;
26574;SDS011;67165;50.256;10.978;2023-04-10T14:23:09;6.43;;;5.00;;
26574;SDS011;67165;50.256;10.978;2023-04-10T14:25:41;6.65;;;4.75;;
26574;SDS011;67165;50.256;10.978;2023-04-10T14:28:10;5.47;;;4.68;;
26574;SDS011;67165;50.256;10.978;2023-04-10T14:30:42;4.70;;;4.05;;
26574;SDS011;67165;50.256;10.978;2023-04-10T14:33:15;4.97;;;4.10;;
26574;SDS011;67165;50.256;10.978;2023-04-10T14:35:42;6.35;;;5.00;;
26574;SDS011;67165;50.256;10.978;2023-04-10T14:38:08;4.88;;;4.38;;
26574;SDS011;67165;50.256;10.978;2023-04-10T14:40:35;5.43;;;4.78;;
26574;SDS011;67165;50.256;10.978;2023-04-10T14:43:00;6.90;;;4.70;;
26574;SDS011;67165;50.256;10.978;2023-04-10T14:45:26;5.80;;;4.53;;
26574;SDS011;67165;50.256;10.978;2023-04-10T14:47:52;5.30;;;4.47;;
26574;SDS011;67165;50.256;10.978;2023-04-10T14:50:18;5.72;;;4.50;;
26574;SDS011;67165;50.256;10.978;2023-04-10T14:52:44;6.35;;;4.38;;
26574;SDS011;67165;50.256;10.978;2023-04-10T14:55:09;6.03;;;3.80;;
26574;SDS011;67165;50.256;10.978;2023-04-10T14:57:35;5.13;;;4.10;;
26574;SDS011;67165;50.256;10.978;2023-04-10T15:00:01;4.57;;;4.10;;
26574;SDS011;67165;50.256;10.978;2023-04-10T15:02:28;5.03;;;4.22;;
26574;SDS011;67165;50.256;10.978;2023-04-10T15:04:54;5.45;;;4.10;;
26574;SDS011;67165;50.256;10.978;2023-04-10T15:07:20;4.82;;;4.10;;
26574;SDS011;67165;50.256;10.978;2023-04-10T15:09:46;4.25;;;3.85;;
26574;SDS011;67165;50.256;10.978;2023-04-10T15:12:12;4.75;;;4.20;;
26574;SDS011;67165;50.256;10.978;2023-04-10T15:14:37;4.72;;;4.10;;
26574;SDS011;67165;50.256;10.978;2023-04-10T15:17:03;4.63;;;4.13;;